sensor_id;sensor_type;location;lat;lon;timestamp;P1;durP1;ratioP1;P2;durP2;ratioP2
3447;SDS011;1738;49.500;17.736;2022-11-15T00:00:20;66.37;;;38.93;;
3447;SDS011;1738;49.500;17.736;2022-11-15T00:02:46;59.50;;;34.53;;
3447;SDS011;1738;49.500;17.736;2022-11-15T00:05:12;49.03;;;30.80;;
3447;SDS011;1738;49.500;17.736;2022-11-15T00:07:38;57.30;;;31.77;;
3447;SDS011;1738;49.500;17.736;2022-11-15T00:10:04;57.63;;;32.80;;
3447;SDS011;1738;49.500;17.736;2022-11-15T00:12:29;51.13;;;31.77;;
3447;SDS011;1738;49.500;17.736;2022-11-15T00:14:55;53.13;;;31.30;;
3447;SDS011;1738;49.500;17.736;2022-11-15T00:17:21;65.97;;;34.22;;
3447;SDS011;1738;49.500;17.736;2022-11-15T00:19:47;51.83;;;32.73;;
3447;SDS011;1738;49.500;17.736;2022-11-15T00:22:13;50.30;;;32.13;;
3447;SDS011;1738;49.500;17.736;2022-11-15T00:24:39;54.73;;;31.97;;
3447;SDS011;1738;49.500;17.736;2022-11-15T00:27:04;52.97;;;31.53;;
3447;SDS011;1738;49.500;17.736;2022-11-15T00:29:30;54.67;;;28.70;;
3447;SDS011;1738;49.500;17.736;2022-11-15T00:31:56;48.67;;;29.13;;
3447;SDS011;1738;49.500;17.736;2022-11-15T00:34:22;49.38;;;31.60;;
3447;SDS011;1738;49.500;17.736;2022-11-15T00:36:48;54.60;;;30.57;;
3447;SDS011;1738;49.500;17.736;2022-11-15T00:39:14;51.67;;;29.13;;
3447;SDS011;1738;49.500;17.736;2022-11-15T00:41:40;61.77;;;31.07;;
3447;SDS011;1738;49.500;17.736;2022-11-15T00:44:05;61.27;;;34.33;;
3447;SDS011;1738;49.500;17.736;2022-11-15T00:46:31;43.87;;;26.90;;
3447;SDS011;1738;49.500;17.736;2022-11-15T00:48:57;38.93;;;25.33;;
3447;SDS011;1738;49.500;17.736;2022-11-15T00:51:23;32.83;;;23.50;;
3447;SDS011;1738;49.500;17.736;2022-11-15T00:53:49;47.13;;;25.47;;
3447;SDS011;1738;49.500;17.736;2022-11-15T00:56:15;39.27;;;24.07;;
3447;SDS011;1738;49.500;17.736;2022-11-15T00:58:40;44.63;;;25.95;;
3447;SDS011;1738;49.500;17.736;2022-11-15T01:01:10;57.90;;;27.60;;
3447;SDS011;1738;49.500;17.736;2022-11-15T01:03:35;45.43;;;26.57;;
3447;SDS011;1738;49.500;17.736;2022-11-15T01:06:01;41.60;;;25.77;;
3447;SDS011;1738;49.500;17.736;2022-11-15T01:08:26;39.80;;;23.70;;
3447;SDS011;1738;49.500;17.736;2022-11-15T01:10:52;41.07;;;22.60;;
3447;SDS011;1738;49.500;17.736;2022-11-15T01:13:18;43.83;;;22.40;;
3447;SDS011;1738;49.500;17.736;2022-11-15T01:15:44;33.83;;;20.10;;
3447;SDS011;1738;49.500;17.736;2022-11-15T01:18:10;35.73;;;20.33;;
3447;SDS011;1738;49.500;17.736;2022-11-15T01:20:39;33.35;;;20.30;;
3447;SDS011;1738;49.500;17.736;2022-11-15T01:23:04;33.17;;;20.13;;
3447;SDS011;1738;49.500;17.736;2022-11-15T01:25:30;33.67;;;20.30;;
3447;SDS011;1738;49.500;17.736;2022-11-15T01:27:56;31.47;;;19.40;;
3447;SDS011;1738;49.500;17.736;2022-11-15T01:30:22;36.57;;;20.20;;
3447;SDS011;1738;49.500;17.736;2022-11-15T01:32:48;32.50;;;20.20;;
3447;SDS011;1738;49.500;17.736;2022-11-15T01:35:13;26.90;;;19.23;;
3447;SDS011;1738;49.500;17.736;2022-11-15T01:37:39;30.60;;;19.53;;
3447;SDS011;1738;49.500;17.736;2022-11-15T01:40:05;34.07;;;20.93;;
3447;SDS011;1738;49.500;17.736;2022-11-15T01:42:31;34.07;;;19.07;;
3447;SDS011;1738;49.500;17.736;2022-11-15T01:44:57;33.93;;;18.47;;
3447;SDS011;1738;49.500;17.736;2022-11-15T01:47:24;30.37;;;19.67;;
3447;SDS011;1738;49.500;17.736;2022-11-15T01:49:50;34.58;;;18.52;;
3447;SDS011;1738;49.500;17.736;2022-11-15T01:52:16;27.20;;;17.93;;
3447;SDS011;1738;49.500;17.736;2022-11-15T01:54:41;31.40;;;18.87;;
3447;SDS011;1738;49.500;17.736;2022-11-15T01:57:08;33.03;;;18.00;;
3447;SDS011;1738;49.500;17.736;2022-11-15T01:59:32;28.43;;;18.73;;
3447;SDS011;1738;49.500;17.736;2022-11-15T02:01:58;27.00;;;17.50;;
3447;SDS011;1738;49.500;17.736;2022-11-15T02:04:26;28.63;;;17.30;;
3447;SDS011;1738;49.500;17.736;2022-11-15T02:06:51;26.50;;;17.90;;
3447;SDS011;1738;49.500;17.736;2022-11-15T02:09:17;32.90;;;18.93;;
3447;SDS011;1738;49.500;17.736;2022-11-15T02:11:43;31.07;;;18.40;;
3447;SDS011;1738;49.500;17.736;2022-11-15T02:14:09;29.27;;;17.80;;
3447;SDS011;1738;49.500;17.736;2022-11-15T02:16:46;31.67;;;20.17;;
3447;SDS011;1738;49.500;17.736;2022-11-15T02:22:00;31.60;;;17.33;;
3447;SDS011;1738;49.500;17.736;2022-11-15T02:24:37;31.50;;;17.05;;
3447;SDS011;1738;49.500;17.736;2022-11-15T02:29:54;28.27;;;15.53;;
3447;SDS011;1738;49.500;17.736;2022-11-15T02:32:18;20.73;;;14.20;;
3447;SDS011;1738;49.500;17.736;2022-11-15T02:34:50;27.13;;;16.17;;
3447;SDS011;1738;49.500;17.736;2022-11-15T02:37:16;26.90;;;15.37;;
3447;SDS011;1738;49.500;17.736;2022-11-15T02:40:16;21.77;;;14.43;;
3447;SDS011;1738;49.500;17.736;2022-11-15T02:42:25;19.47;;;13.47;;
3447;SDS011;1738;49.500;17.736;2022-11-15T02:44:55;23.90;;;14.00;;
3447;SDS011;1738;49.500;17.736;2022-11-15T02:47:21;21.33;;;13.47;;
3447;SDS011;1738;49.500;17.736;2022-11-15T02:49:48;23.53;;;14.80;;
3447;SDS011;1738;49.500;17.736;2022-11-15T02:52:15;23.00;;;15.63;;
3447;SDS011;1738;49.500;17.736;2022-11-15T02:54:40;23.40;;;14.17;;
3447;SDS011;1738;49.500;17.736;2022-11-15T02:57:07;19.50;;;12.87;;
3447;SDS011;1738;49.500;17.736;2022-11-15T02:59:39;25.77;;;15.20;;
3447;SDS011;1738;49.500;17.736;2022-11-15T03:02:12;22.30;;;14.37;;
3447;SDS011;1738;49.500;17.736;2022-11-15T03:04:42;25.53;;;14.00;;
3447;SDS011;1738;49.500;17.736;2022-11-15T03:07:11;20.65;;;13.30;;
3447;SDS011;1738;49.500;17.736;2022-11-15T03:09:48;26.43;;;14.63;;
3447;SDS011;1738;49.500;17.736;2022-11-15T03:12:12;24.10;;;15.00;;
3447;SDS011;1738;49.500;17.736;2022-11-15T03:14:40;25.97;;;14.53;;
3447;SDS011;1738;49.500;17.736;2022-11-15T03:17:22;20.50;;;13.33;;
3447;SDS011;1738;49.500;17.736;2022-11-15T03:19:46;21.47;;;14.20;;
3447;SDS011;1738;49.500;17.736;2022-11-15T03:22:11;25.33;;;14.82;;
3447;SDS011;1738;49.500;17.736;2022-11-15T03:24:37;22.30;;;13.50;;
3447;SDS011;1738;49.500;17.736;2022-11-15T03:27:02;21.13;;;13.40;;
3447;SDS011;1738;49.500;17.736;2022-11-15T03:29:31;19.60;;;13.60;;
3447;SDS011;1738;49.500;17.736;2022-11-15T03:31:56;26.73;;;15.33;;
3447;SDS011;1738;49.500;17.736;2022-11-15T03:37:01;21.67;;;14.77;;
3447;SDS011;1738;49.500;17.736;2022-11-15T03:39:27;18.27;;;12.90;;
3447;SDS011;1738;49.500;17.736;2022-11-15T03:41:57;22.93;;;13.50;;
3447;SDS011;1738;49.500;17.736;2022-11-15T03:44:24;20.12;;;12.95;;
3447;SDS011;1738;49.500;17.736;2022-11-15T03:46:47;23.60;;;14.53;;
3447;SDS011;1738;49.500;17.736;2022-11-15T03:49:14;17.70;;;13.33;;
3447;SDS011;1738;49.500;17.736;2022-11-15T03:51:38;19.37;;;13.00;;
3447;SDS011;1738;49.500;17.736;2022-11-15T03:54:04;23.20;;;13.43;;
3447;SDS011;1738;49.500;17.736;2022-11-15T03:56:30;22.67;;;13.00;;
3447;SDS011;1738;49.500;17.736;2022-11-15T03:58:56;20.70;;;13.67;;
3447;SDS011;1738;49.500;17.736;2022-11-15T04:01:22;19.37;;;13.47;;
3447;SDS011;1738;49.500;17.736;2022-11-15T04:03:47;22.93;;;12.37;;
3447;SDS011;1738;49.500;17.736;2022-11-15T04:06:13;21.20;;;13.50;;
3447;SDS011;1738;49.500;17.736;2022-11-15T04:08:39;17.80;;;11.60;;
3447;SDS011;1738;49.500;17.736;2022-11-15T04:11:05;21.93;;;13.43;;
3447;SDS011;1738;49.500;17.736;2022-11-15T04:13:31;21.40;;;13.87;;
3447;SDS011;1738;49.500;17.736;2022-11-15T04:15:57;18.23;;;11.40;;
3447;SDS011;1738;49.500;17.736;2022-11-15T04:18:22;18.37;;;12.90;;
3447;SDS011;1738;49.500;17.736;2022-11-15T04:20:48;18.70;;;12.10;;
3447;SDS011;1738;49.500;17.736;2022-11-15T04:23:21;22.03;;;13.10;;
3447;SDS011;1738;49.500;17.736;2022-11-15T04:25:52;17.95;;;11.65;;
3447;SDS011;1738;49.500;17.736;2022-11-15T04:28:18;22.80;;;13.90;;
3447;SDS011;1738;49.500;17.736;2022-11-15T04:30:43;20.37;;;12.43;;
3447;SDS011;1738;49.500;17.736;2022-11-15T04:33:09;20.70;;;12.70;;
3447;SDS011;1738;49.500;17.736;2022-11-15T04:35:35;16.73;;;11.53;;
3447;SDS011;1738;49.500;17.736;2022-11-15T04:38:01;24.90;;;14.40;;
3447;SDS011;1738;49.500;17.736;2022-11-15T04:40:27;17.23;;;11.63;;
3447;SDS011;1738;49.500;17.736;2022-11-15T04:42:52;22.45;;;13.55;;
3447;SDS011;1738;49.500;17.736;2022-11-15T04:45:18;23.02;;;16.48;;
3447;SDS011;1738;49.500;17.736;2022-11-15T04:47:44;21.10;;;13.90;;
3447;SDS011;1738;49.500;17.736;2022-11-15T04:50:10;21.85;;;13.93;;
3447;SDS011;1738;49.500;17.736;2022-11-15T04:52:36;20.73;;;13.73;;
3447;SDS011;1738;49.500;17.736;2022-11-15T04:55:02;23.33;;;14.40;;
3447;SDS011;1738;49.500;17.736;2022-11-15T04:57:28;22.98;;;14.52;;
3447;SDS011;1738;49.500;17.736;2022-11-15T04:59:53;25.37;;;15.43;;
3447;SDS011;1738;49.500;17.736;2022-11-15T05:02:19;22.10;;;14.03;;
3447;SDS011;1738;49.500;17.736;2022-11-15T05:04:45;30.43;;;14.80;;
3447;SDS011;1738;49.500;17.736;2022-11-15T05:07:12;23.67;;;14.87;;
3447;SDS011;1738;49.500;17.736;2022-11-15T05:09:38;19.83;;;13.83;;
3447;SDS011;1738;49.500;17.736;2022-11-15T05:12:04;21.70;;;13.17;;
3447;SDS011;1738;49.500;17.736;2022-11-15T05:14:30;22.30;;;14.37;;
3447;SDS011;1738;49.500;17.736;2022-11-15T05:16:55;22.97;;;14.47;;
3447;SDS011;1738;49.500;17.736;2022-11-15T05:19:22;30.20;;;17.17;;
3447;SDS011;1738;49.500;17.736;2022-11-15T05:21:48;30.77;;;17.50;;
3447;SDS011;1738;49.500;17.736;2022-11-15T05:24:13;33.33;;;17.60;;
3447;SDS011;1738;49.500;17.736;2022-11-15T05:26:40;26.87;;;15.90;;
3447;SDS011;1738;49.500;17.736;2022-11-15T05:29:05;29.13;;;17.07;;
3447;SDS011;1738;49.500;17.736;2022-11-15T05:31:31;29.70;;;16.50;;
3447;SDS011;1738;49.500;17.736;2022-11-15T05:33:57;34.17;;;16.87;;
3447;SDS011;1738;49.500;17.736;2022-11-15T05:36:27;27.10;;;16.80;;
3447;SDS011;1738;49.500;17.736;2022-11-15T05:38:50;31.20;;;16.80;;
3447;SDS011;1738;49.500;17.736;2022-11-15T05:41:17;26.27;;;16.17;;
3447;SDS011;1738;49.500;17.736;2022-11-15T05:43:42;27.83;;;17.53;;
3447;SDS011;1738;49.500;17.736;2022-11-15T05:46:08;27.13;;;16.27;;
3447;SDS011;1738;49.500;17.736;2022-11-15T05:48:34;27.90;;;16.93;;
3447;SDS011;1738;49.500;17.736;2022-11-15T05:51:00;26.63;;;17.07;;
3447;SDS011;1738;49.500;17.736;2022-11-15T05:53:26;33.10;;;16.87;;
3447;SDS011;1738;49.500;17.736;2022-11-15T05:55:51;32.20;;;19.00;;
3447;SDS011;1738;49.500;17.736;2022-11-15T05:58:18;29.93;;;18.80;;
3447;SDS011;1738;49.500;17.736;2022-11-15T06:00:43;29.80;;;17.33;;
3447;SDS011;1738;49.500;17.736;2022-11-15T06:03:09;28.13;;;17.03;;
3447;SDS011;1738;49.500;17.736;2022-11-15T06:05:35;28.70;;;16.17;;
3447;SDS011;1738;49.500;17.736;2022-11-15T06:08:01;31.00;;;18.42;;
3447;SDS011;1738;49.500;17.736;2022-11-15T06:10:26;27.77;;;17.57;;
3447;SDS011;1738;49.500;17.736;2022-11-15T06:12:57;28.90;;;16.67;;
3447;SDS011;1738;49.500;17.736;2022-11-15T06:15:22;25.67;;;15.87;;
3447;SDS011;1738;49.500;17.736;2022-11-15T06:17:48;25.47;;;15.83;;
3447;SDS011;1738;49.500;17.736;2022-11-15T06:20:14;27.50;;;17.43;;
3447;SDS011;1738;49.500;17.736;2022-11-15T06:22:40;26.07;;;17.07;;
3447;SDS011;1738;49.500;17.736;2022-11-15T06:25:06;34.60;;;19.63;;
3447;SDS011;1738;49.500;17.736;2022-11-15T06:27:32;30.17;;;17.73;;
3447;SDS011;1738;49.500;17.736;2022-11-15T06:29:57;35.10;;;19.03;;
3447;SDS011;1738;49.500;17.736;2022-11-15T06:32:23;27.57;;;16.93;;
3447;SDS011;1738;49.500;17.736;2022-11-15T06:34:49;29.00;;;18.07;;
3447;SDS011;1738;49.500;17.736;2022-11-15T06:37:15;32.43;;;18.50;;
3447;SDS011;1738;49.500;17.736;2022-11-15T06:39:41;29.73;;;18.35;;
3447;SDS011;1738;49.500;17.736;2022-11-15T06:42:08;35.53;;;19.23;;
3447;SDS011;1738;49.500;17.736;2022-11-15T06:44:33;29.33;;;18.87;;
3447;SDS011;1738;49.500;17.736;2022-11-15T06:46:59;33.80;;;17.80;;
3447;SDS011;1738;49.500;17.736;2022-11-15T06:49:25;28.80;;;16.20;;
3447;SDS011;1738;49.500;17.736;2022-11-15T06:51:51;33.70;;;18.90;;
3447;SDS011;1738;49.500;17.736;2022-11-15T06:54:17;34.87;;;20.87;;
3447;SDS011;1738;49.500;17.736;2022-11-15T06:56:43;31.60;;;18.43;;
3447;SDS011;1738;49.500;17.736;2022-11-15T06:59:08;33.30;;;20.50;;
3447;SDS011;1738;49.500;17.736;2022-11-15T07:01:34;32.37;;;19.90;;
3447;SDS011;1738;49.500;17.736;2022-11-15T07:04:00;29.73;;;18.10;;
3447;SDS011;1738;49.500;17.736;2022-11-15T07:06:26;75.85;;;36.28;;
3447;SDS011;1738;49.500;17.736;2022-11-15T07:08:52;170.93;;;65.50;;
3447;SDS011;1738;49.500;17.736;2022-11-15T07:11:18;130.87;;;56.53;;
3447;SDS011;1738;49.500;17.736;2022-11-15T07:13:43;114.27;;;53.23;;
3447;SDS011;1738;49.500;17.736;2022-11-15T07:16:09;109.10;;;54.00;;
3447;SDS011;1738;49.500;17.736;2022-11-15T07:18:36;85.70;;;40.20;;
3447;SDS011;1738;49.500;17.736;2022-11-15T07:21:04;87.50;;;42.27;;
3447;SDS011;1738;49.500;17.736;2022-11-15T07:23:30;67.30;;;36.50;;
3447;SDS011;1738;49.500;17.736;2022-11-15T07:25:56;43.10;;;22.60;;
3447;SDS011;1738;49.500;17.736;2022-11-15T07:28:21;54.73;;;28.50;;
3447;SDS011;1738;49.500;17.736;2022-11-15T07:30:47;87.40;;;47.93;;
3447;SDS011;1738;49.500;17.736;2022-11-15T07:33:13;69.57;;;39.37;;
3447;SDS011;1738;49.500;17.736;2022-11-15T07:35:39;47.17;;;25.07;;
3447;SDS011;1738;49.500;17.736;2022-11-15T07:38:05;62.00;;;31.60;;
3447;SDS011;1738;49.500;17.736;2022-11-15T07:40:31;53.80;;;28.10;;
3447;SDS011;1738;49.500;17.736;2022-11-15T07:43:02;52.93;;;28.23;;
3447;SDS011;1738;49.500;17.736;2022-11-15T07:45:27;47.58;;;29.02;;
3447;SDS011;1738;49.500;17.736;2022-11-15T07:47:53;47.27;;;29.13;;
3447;SDS011;1738;49.500;17.736;2022-11-15T07:50:18;54.17;;;29.67;;
3447;SDS011;1738;49.500;17.736;2022-11-15T07:52:44;48.80;;;26.70;;
3447;SDS011;1738;49.500;17.736;2022-11-15T07:55:10;44.37;;;28.20;;
3447;SDS011;1738;49.500;17.736;2022-11-15T07:57:36;55.55;;;28.38;;
3447;SDS011;1738;49.500;17.736;2022-11-15T08:00:03;47.13;;;28.40;;
3447;SDS011;1738;49.500;17.736;2022-11-15T08:02:28;46.70;;;28.80;;
3447;SDS011;1738;49.500;17.736;2022-11-15T08:04:53;37.77;;;23.97;;
3447;SDS011;1738;49.500;17.736;2022-11-15T08:07:19;37.87;;;23.97;;
3447;SDS011;1738;49.500;17.736;2022-11-15T08:09:45;37.17;;;22.52;;
3447;SDS011;1738;49.500;17.736;2022-11-15T08:12:11;39.13;;;21.87;;
3447;SDS011;1738;49.500;17.736;2022-11-15T08:14:37;35.57;;;20.90;;
3447;SDS011;1738;49.500;17.736;2022-11-15T08:17:03;35.37;;;19.00;;
3447;SDS011;1738;49.500;17.736;2022-11-15T08:19:29;30.63;;;20.07;;
3447;SDS011;1738;49.500;17.736;2022-11-15T08:21:54;28.50;;;18.47;;
3447;SDS011;1738;49.500;17.736;2022-11-15T08:24:20;26.13;;;19.20;;
3447;SDS011;1738;49.500;17.736;2022-11-15T08:26:46;31.80;;;18.87;;
3447;SDS011;1738;49.500;17.736;2022-11-15T08:29:12;27.93;;;19.10;;
3447;SDS011;1738;49.500;17.736;2022-11-15T08:31:38;29.07;;;18.57;;
3447;SDS011;1738;49.500;17.736;2022-11-15T08:34:04;27.35;;;17.27;;
3447;SDS011;1738;49.500;17.736;2022-11-15T08:36:30;26.60;;;18.03;;
3447;SDS011;1738;49.500;17.736;2022-11-15T08:38:56;29.43;;;18.20;;
3447;SDS011;1738;49.500;17.736;2022-11-15T08:41:24;27.30;;;18.50;;
3447;SDS011;1738;49.500;17.736;2022-11-15T08:43:47;28.43;;;18.57;;
3447;SDS011;1738;49.500;17.736;2022-11-15T08:46:13;28.05;;;19.33;;
3447;SDS011;1738;49.500;17.736;2022-11-15T08:48:39;34.80;;;20.27;;
3447;SDS011;1738;49.500;17.736;2022-11-15T08:51:05;32.30;;;20.50;;
3447;SDS011;1738;49.500;17.736;2022-11-15T08:53:31;32.63;;;20.20;;
3447;SDS011;1738;49.500;17.736;2022-11-15T08:55:57;34.97;;;22.43;;
3447;SDS011;1738;49.500;17.736;2022-11-15T08:58:23;30.73;;;19.73;;
3447;SDS011;1738;49.500;17.736;2022-11-15T09:00:49;29.97;;;18.97;;
3447;SDS011;1738;49.500;17.736;2022-11-15T09:03:14;28.40;;;20.40;;
3447;SDS011;1738;49.500;17.736;2022-11-15T09:05:40;31.73;;;21.60;;
3447;SDS011;1738;49.500;17.736;2022-11-15T09:08:06;35.80;;;21.83;;
3447;SDS011;1738;49.500;17.736;2022-11-15T09:10:32;31.67;;;21.20;;
3447;SDS011;1738;49.500;17.736;2022-11-15T09:12:58;33.63;;;21.80;;
3447;SDS011;1738;49.500;17.736;2022-11-15T09:15:24;29.00;;;19.27;;
3447;SDS011;1738;49.500;17.736;2022-11-15T09:17:50;29.77;;;20.27;;
3447;SDS011;1738;49.500;17.736;2022-11-15T09:20:15;27.93;;;19.57;;
3447;SDS011;1738;49.500;17.736;2022-11-15T09:22:41;24.80;;;18.53;;
3447;SDS011;1738;49.500;17.736;2022-11-15T09:25:07;23.80;;;16.57;;
3447;SDS011;1738;49.500;17.736;2022-11-15T09:27:33;23.67;;;17.20;;
3447;SDS011;1738;49.500;17.736;2022-11-15T09:29:59;31.10;;;19.20;;
3447;SDS011;1738;49.500;17.736;2022-11-15T09:32:28;27.13;;;17.80;;
3447;SDS011;1738;49.500;17.736;2022-11-15T09:34:51;25.90;;;16.80;;
3447;SDS011;1738;49.500;17.736;2022-11-15T09:37:17;25.80;;;18.70;;
3447;SDS011;1738;49.500;17.736;2022-11-15T09:39:43;29.30;;;17.90;;
3447;SDS011;1738;49.500;17.736;2022-11-15T09:44:57;29.67;;;20.20;;
3447;SDS011;1738;49.500;17.736;2022-11-15T09:50:09;27.80;;;18.77;;
3447;SDS011;1738;49.500;17.736;2022-11-15T09:52:34;27.95;;;18.62;;
3447;SDS011;1738;49.500;17.736;2022-11-15T09:55:00;33.00;;;20.53;;
3447;SDS011;1738;49.500;17.736;2022-11-15T09:57:31;27.07;;;18.77;;
3447;SDS011;1738;49.500;17.736;2022-11-15T10:00:15;36.20;;;20.30;;
3447;SDS011;1738;49.500;17.736;2022-11-15T10:02:42;28.75;;;19.80;;
3447;SDS011;1738;49.500;17.736;2022-11-15T10:05:03;31.27;;;18.97;;
3447;SDS011;1738;49.500;17.736;2022-11-15T10:10:09;27.20;;;19.90;;
3447;SDS011;1738;49.500;17.736;2022-11-15T10:12:30;31.20;;;18.77;;
3447;SDS011;1738;49.500;17.736;2022-11-15T10:15:00;30.75;;;21.70;;
3447;SDS011;1738;49.500;17.736;2022-11-15T10:17:28;27.97;;;19.47;;
3447;SDS011;1738;49.500;17.736;2022-11-15T10:20:02;32.47;;;22.10;;
3447;SDS011;1738;49.500;17.736;2022-11-15T10:22:30;33.17;;;20.37;;
3447;SDS011;1738;49.500;17.736;2022-11-15T10:25:27;34.30;;;21.57;;
3447;SDS011;1738;49.500;17.736;2022-11-15T10:27:35;33.77;;;21.90;;
3447;SDS011;1738;49.500;17.736;2022-11-15T10:30:02;31.63;;;19.77;;
3447;SDS011;1738;49.500;17.736;2022-11-15T10:32:27;34.10;;;22.83;;
3447;SDS011;1738;49.500;17.736;2022-11-15T10:34:53;31.47;;;21.50;;
3447;SDS011;1738;49.500;17.736;2022-11-15T10:37:27;37.03;;;22.30;;
3447;SDS011;1738;49.500;17.736;2022-11-15T10:42:26;31.40;;;21.27;;
3447;SDS011;1738;49.500;17.736;2022-11-15T10:44:51;38.30;;;22.77;;
3447;SDS011;1738;49.500;17.736;2022-11-15T10:47:22;30.53;;;19.37;;
3447;SDS011;1738;49.500;17.736;2022-11-15T10:49:54;37.30;;;22.13;;
3447;SDS011;1738;49.500;17.736;2022-11-15T10:52:18;35.00;;;20.67;;
3447;SDS011;1738;49.500;17.736;2022-11-15T10:54:48;28.83;;;19.67;;
3447;SDS011;1738;49.500;17.736;2022-11-15T10:57:15;25.03;;;17.60;;
3447;SDS011;1738;49.500;17.736;2022-11-15T10:59:42;28.13;;;18.60;;
3447;SDS011;1738;49.500;17.736;2022-11-15T11:04:48;35.60;;;22.37;;
3447;SDS011;1738;49.500;17.736;2022-11-15T11:07:08;39.57;;;23.77;;
3447;SDS011;1738;49.500;17.736;2022-11-15T11:09:32;28.30;;;21.70;;
3447;SDS011;1738;49.500;17.736;2022-11-15T11:11:56;33.40;;;19.97;;
3447;SDS011;1738;49.500;17.736;2022-11-15T11:14:24;29.77;;;20.53;;
3447;SDS011;1738;49.500;17.736;2022-11-15T11:16:53;30.37;;;18.37;;
3447;SDS011;1738;49.500;17.736;2022-11-15T11:19:25;28.83;;;18.70;;
3447;SDS011;1738;49.500;17.736;2022-11-15T11:22:21;27.60;;;18.90;;
3447;SDS011;1738;49.500;17.736;2022-11-15T11:25:38;26.90;;;18.63;;
3447;SDS011;1738;49.500;17.736;2022-11-15T11:27:25;29.87;;;18.80;;
3447;SDS011;1738;49.500;17.736;2022-11-15T11:29:49;30.43;;;18.93;;
3447;SDS011;1738;49.500;17.736;2022-11-15T11:33:17;33.37;;;20.23;;
3447;SDS011;1738;49.500;17.736;2022-11-15T11:34:58;32.00;;;22.00;;
3447;SDS011;1738;49.500;17.736;2022-11-15T11:37:52;32.57;;;19.03;;
3447;SDS011;1738;49.500;17.736;2022-11-15T11:40:06;29.83;;;19.30;;
3447;SDS011;1738;49.500;17.736;2022-11-15T11:42:35;34.70;;;21.10;;
3447;SDS011;1738;49.500;17.736;2022-11-15T11:45:03;30.57;;;19.13;;
3447;SDS011;1738;49.500;17.736;2022-11-15T11:47:24;31.70;;;19.70;;
3447;SDS011;1738;49.500;17.736;2022-11-15T11:49:51;26.00;;;18.33;;
3447;SDS011;1738;49.500;17.736;2022-11-15T11:52:18;31.17;;;20.20;;
3447;SDS011;1738;49.500;17.736;2022-11-15T11:54:46;30.33;;;19.57;;
3447;SDS011;1738;49.500;17.736;2022-11-15T11:57:12;36.63;;;18.50;;
3447;SDS011;1738;49.500;17.736;2022-11-15T11:59:39;31.93;;;19.73;;
3447;SDS011;1738;49.500;17.736;2022-11-15T12:02:08;29.13;;;18.63;;
3447;SDS011;1738;49.500;17.736;2022-11-15T12:04:30;29.63;;;17.90;;
3447;SDS011;1738;49.500;17.736;2022-11-15T12:06:58;42.27;;;19.37;;
3447;SDS011;1738;49.500;17.736;2022-11-15T12:09:30;29.67;;;18.03;;
3447;SDS011;1738;49.500;17.736;2022-11-15T12:12:06;30.00;;;17.83;;
3447;SDS011;1738;49.500;17.736;2022-11-15T12:14:40;31.63;;;18.73;;
3447;SDS011;1738;49.500;17.736;2022-11-15T12:17:05;28.93;;;18.20;;
3447;SDS011;1738;49.500;17.736;2022-11-15T12:19:30;25.10;;;17.70;;
3447;SDS011;1738;49.500;17.736;2022-11-15T12:24:39;28.40;;;18.40;;
3447;SDS011;1738;49.500;17.736;2022-11-15T12:27:10;25.53;;;17.27;;
3447;SDS011;1738;49.500;17.736;2022-11-15T12:29:35;26.43;;;16.60;;
3447;SDS011;1738;49.500;17.736;2022-11-15T12:31:59;31.07;;;21.27;;
3447;SDS011;1738;49.500;17.736;2022-11-15T12:34:34;34.63;;;19.93;;
3447;SDS011;1738;49.500;17.736;2022-11-15T12:36:55;28.67;;;19.80;;
3447;SDS011;1738;49.500;17.736;2022-11-15T12:40:03;32.50;;;17.90;;
3447;SDS011;1738;49.500;17.736;2022-11-15T12:47:02;25.00;;;17.73;;
3447;SDS011;1738;49.500;17.736;2022-11-15T12:49:43;28.27;;;18.00;;
3447;SDS011;1738;49.500;17.736;2022-11-15T12:52:09;24.77;;;16.97;;
3447;SDS011;1738;49.500;17.736;2022-11-15T12:57:22;26.87;;;19.30;;
3447;SDS011;1738;49.500;17.736;2022-11-15T12:59:53;34.97;;;19.27;;
3447;SDS011;1738;49.500;17.736;2022-11-15T13:02:18;31.77;;;20.13;;
3447;SDS011;1738;49.500;17.736;2022-11-15T13:04:43;24.43;;;17.67;;
3447;SDS011;1738;49.500;17.736;2022-11-15T13:07:09;28.83;;;17.73;;
3447;SDS011;1738;49.500;17.736;2022-11-15T13:09:50;30.03;;;19.37;;
3447;SDS011;1738;49.500;17.736;2022-11-15T13:12:55;28.30;;;18.70;;
3447;SDS011;1738;49.500;17.736;2022-11-15T13:17:51;33.87;;;18.40;;
3447;SDS011;1738;49.500;17.736;2022-11-15T13:20:18;25.20;;;17.07;;
3447;SDS011;1738;49.500;17.736;2022-11-15T13:22:44;25.23;;;17.57;;
3447;SDS011;1738;49.500;17.736;2022-11-15T13:25:16;29.73;;;18.30;;
3447;SDS011;1738;49.500;17.736;2022-11-15T13:27:41;31.20;;;17.53;;
3447;SDS011;1738;49.500;17.736;2022-11-15T13:30:27;31.90;;;19.63;;
3447;SDS011;1738;49.500;17.736;2022-11-15T13:32:51;34.87;;;19.17;;
3447;SDS011;1738;49.500;17.736;2022-11-15T13:35:19;28.70;;;20.20;;
3447;SDS011;1738;49.500;17.736;2022-11-15T13:37:44;27.73;;;19.00;;
3447;SDS011;1738;49.500;17.736;2022-11-15T13:40:19;26.80;;;17.70;;
3447;SDS011;1738;49.500;17.736;2022-11-15T13:42:41;25.00;;;18.80;;
3447;SDS011;1738;49.500;17.736;2022-11-15T13:45:11;25.43;;;17.40;;
3447;SDS011;1738;49.500;17.736;2022-11-15T13:47:33;27.87;;;17.17;;
3447;SDS011;1738;49.500;17.736;2022-11-15T13:49:59;23.70;;;17.37;;
3447;SDS011;1738;49.500;17.736;2022-11-15T13:52:27;32.07;;;19.00;;
3447;SDS011;1738;49.500;17.736;2022-11-15T13:54:55;33.63;;;19.00;;
3447;SDS011;1738;49.500;17.736;2022-11-15T13:57:20;29.90;;;19.00;;
3447;SDS011;1738;49.500;17.736;2022-11-15T13:59:45;30.93;;;18.53;;
3447;SDS011;1738;49.500;17.736;2022-11-15T14:02:12;27.67;;;18.37;;
3447;SDS011;1738;49.500;17.736;2022-11-15T14:04:37;31.93;;;18.63;;
3447;SDS011;1738;49.500;17.736;2022-11-15T14:07:03;31.23;;;19.67;;
3447;SDS011;1738;49.500;17.736;2022-11-15T14:09:29;31.23;;;22.10;;
3447;SDS011;1738;49.500;17.736;2022-11-15T14:11:55;33.43;;;19.47;;
3447;SDS011;1738;49.500;17.736;2022-11-15T14:14:21;28.70;;;19.40;;
3447;SDS011;1738;49.500;17.736;2022-11-15T14:16:48;32.13;;;19.30;;
3447;SDS011;1738;49.500;17.736;2022-11-15T14:19:44;27.93;;;18.23;;
3447;SDS011;1738;49.500;17.736;2022-11-15T14:24:29;32.60;;;18.67;;
3447;SDS011;1738;49.500;17.736;2022-11-15T14:26:51;27.87;;;17.80;;
3447;SDS011;1738;49.500;17.736;2022-11-15T14:31:48;31.80;;;19.10;;
3447;SDS011;1738;49.500;17.736;2022-11-15T14:34:14;28.93;;;19.57;;
3447;SDS011;1738;49.500;17.736;2022-11-15T14:36:40;29.47;;;18.87;;
3447;SDS011;1738;49.500;17.736;2022-11-15T14:39:06;33.67;;;20.60;;
3447;SDS011;1738;49.500;17.736;2022-11-15T14:41:34;31.60;;;21.03;;
3447;SDS011;1738;49.500;17.736;2022-11-15T14:43:58;28.33;;;18.20;;
3447;SDS011;1738;49.500;17.736;2022-11-15T14:46:24;27.03;;;18.80;;
3447;SDS011;1738;49.500;17.736;2022-11-15T14:48:50;35.37;;;18.77;;
3447;SDS011;1738;49.500;17.736;2022-11-15T14:51:17;29.03;;;19.17;;
3447;SDS011;1738;49.500;17.736;2022-11-15T14:53:43;28.00;;;18.70;;
3447;SDS011;1738;49.500;17.736;2022-11-15T14:56:09;33.20;;;21.10;;
3447;SDS011;1738;49.500;17.736;2022-11-15T14:58:35;30.63;;;19.03;;
3447;SDS011;1738;49.500;17.736;2022-11-15T15:01:02;25.40;;;17.70;;
3447;SDS011;1738;49.500;17.736;2022-11-15T15:03:26;36.80;;;22.80;;
3447;SDS011;1738;49.500;17.736;2022-11-15T15:05:52;47.03;;;22.95;;
3447;SDS011;1738;49.500;17.736;2022-11-15T15:08:18;25.47;;;17.70;;
3447;SDS011;1738;49.500;17.736;2022-11-15T15:10:45;29.87;;;18.67;;